CheckWX is a tool to help pilots better visualize weather data.  It is not intended as a substitute for an official pre-flight weather briefing.

08:55:37 UTC

KHEF METAR
Manassas Regional / Harry P Davis Field Airport
Washington, Virginia, USA
Current

60 mins ago

KHEF 220756Z AUTO 00000KT 10SM OVC080 04/04 A3025 RMK AO2 SLP256 T00440039
Observed
Feb-22 @ 07:56 UTC
Visibility
10 SM
Flight Rules
VFR
Cloud Levels
  • Overcast at 8,000' AGL
Temperature
C / 39°F
Dewpoint
C / 39°F
Humidity
100%
Altimeter
30.25" Hg
Pressure
1025.6 hPa
Previous

2 hours ago

KHEF 220656Z AUTO 32004KT 10SM OVC075 06/03 A3026 RMK AO2 SLP259 T00560028
Observed
Feb-22 @ 06:56 UTC
Wind
  • 320° at 4 KTS
Visibility
10 SM
Flight Rules
VFR
Cloud Levels
  • Overcast at 7,500' AGL
Temperature
C / 43°F
Dewpoint
C / 37°F
Humidity
81%
Altimeter
30.26" Hg
Pressure
1025.9 hPa
Previous

3 hours ago

KHEF 220556Z AUTO 35003KT 10SM SCT085 BKN120 05/03 A3024 RMK AO2 SLP251 T00500033 10056 20033 50015
Observed
Feb-22 @ 05:56 UTC
Wind
  • 350° at 3 KTS
Visibility
10 SM
Flight Rules
VFR
Cloud Levels
  • Scattered at 8,500' AGL
  • Broken at 12,000' AGL
Temperature
C / 41°F
Dewpoint
C / 37°F
Humidity
87%
Altimeter
30.24" Hg
Pressure
1025.1 hPa